Cheyenne — 9HAK5 — position and weather

sailwx.info

Track history (hours):
 
Tides and Currents Weather Stations Pressure Air Temp Water Temp Dewpoint Dewpoint Depression Visibility Wind Speed Wind Dir Waves Ship Positions

Cheyenne

Last reported at 2016-Jul-28 00:11 UTC. Time now 2016-Jul-28 02:55 UTC.
Position N 47°04' E 039°03'.

Length 133 m; draft 2.9 m.

Type: Ship. MMSI: 249607000.

Date/timePositionNaut miles runAvg speedWind from/ knotsBaromVisibWave heightAir tempDewpointWater temp
2016-Jul-28 00:11N 47°04' E 039°03'5 7.2
2016-Jul-27 23:27N 47°03' E 038°55'123 3.9
2016-Jul-26 16:12N 45°35' E 036°50'5 8.2
2016-Jul-26 15:33N 45°31' E 036°45'8 8.0
2016-Jul-26 14:34N 45°24' E 036°41'5 4.7
2016-Jul-26 13:34N 45°20' E 036°37'7 7.0
2016-Jul-26 12:34N 45°16' E 036°29'5 2.3
2016-Jul-26 10:18N 45°11' E 036°31'0 0.2
2016-Jul-26 09:33N 45°11' E 036°31'0 0.0
2016-Jul-26 08:24N 45°11' E 036°31'0 0.0
2016-Jul-26 07:26N 45°11' E 036°31'0 0.1
2016-Jul-26 06:31N 45°11' E 036°31'4 4.1
2016-Jul-26 05:33N 45°07' E 036°30'61 7.5
2016-Jul-25 21:21N 44°20' E 035°35'7 8.4
2016-Jul-25 20:33N 44°16' E 035°27'  
Track history (hours):
 
Tides and Currents Weather Stations Pressure Air Temp Water Temp Dewpoint Dewpoint Depression Visibility Wind Speed Wind Dir Waves Ship Positions

Cheyenne

Last reported at 2016-Jul-28 00:11 UTC. Time now 2016-Jul-28 02:55 UTC.
Position N 47°04' E 039°03'.

Length 133 m; draft 2.9 m.

Type: Ship. MMSI: 249607000.

Date/timePositionNaut miles runAvg speedWind from/ knotsBaromVisibWave heightAir tempDewpointWater temp
2016-Jul-28 00:11N 47°04' E 039°03'5 7.2
2016-Jul-27 23:27N 47°03' E 038°55'123 3.9
2016-Jul-26 16:12N 45°35' E 036°50'5 8.2
2016-Jul-26 15:33N 45°31' E 036°45'8 8.0
2016-Jul-26 14:34N 45°24' E 036°41'5 4.7
2016-Jul-26 13:34N 45°20' E 036°37'7 7.0
2016-Jul-26 12:34N 45°16' E 036°29'5 2.3
2016-Jul-26 10:18N 45°11' E 036°31'0 0.2
2016-Jul-26 09:33N 45°11' E 036°31'0 0.0
2016-Jul-26 08:24N 45°11' E 036°31'0 0.0
2016-Jul-26 07:26N 45°11' E 036°31'0 0.1
2016-Jul-26 06:31N 45°11' E 036°31'4 4.1
2016-Jul-26 05:33N 45°07' E 036°30'61 7.5
2016-Jul-25 21:21N 44°20' E 035°35'7 8.4
2016-Jul-25 20:33N 44°16' E 035°27'  

Dump ship's entire track history